Time;durP1;ratioP1;P1;durP2;ratioP2;P2;SDS_P1;SDS_P2;PMS_P1;PMS_P2;Temp;Humidity;BMP_temperature;BMP_pressure;BME280_temperature;BME280_humidity;BME280_pressure;Samples;Min_cycle;Max_cycle;Signal;HPM_P1;HPM_P2
2021/12/03 00:00:30;;;;;;;17.90;5.40;;;2.90;99.90;;;;;;4135180;28;20196;-90
2021/12/03 00:02:31;;;;;;;17.17;5.13;;;2.80;99.90;;;;;;4135060;28;20534;-91
2021/12/03 00:04:32;;;;;;;22.07;5.30;;;2.90;99.90;;;;;;4135062;28;20208;-90
2021/12/03 00:06:36;;;;;;;19.40;5.20;;;2.90;99.90;;;;;;4135164;28;20257;-91
2021/12/03 00:08:36;;;;;;;18.97;4.90;;;3.00;99.90;;;;;;4135392;28;20661;-90
2021/12/03 00:10:39;;;;;;;15.63;5.20;;;3.00;99.90;;;;;;4119133;28;20206;-92
2021/12/03 00:12:41;;;;;;;22.30;5.33;;;3.00;99.90;;;;;;4135402;28;20235;-91
2021/12/03 00:14:41;;;;;;;18.97;5.77;;;3.10;99.90;;;;;;4135051;28;20189;-92
2021/12/03 00:16:42;;;;;;;19.13;5.53;;;3.20;99.90;;;;;;4135219;28;20173;-90
2021/12/03 00:18:43;;;;;;;17.40;5.80;;;3.30;99.90;;;;;;4119111;28;20201;-91
2021/12/03 00:20:44;;;;;;;12.47;5.07;;;3.30;99.90;;;;;;4135019;28;20642;-91
2021/12/03 00:22:47;;;;;;;16.63;5.00;;;3.20;99.90;;;;;;4134817;28;20258;-91
2021/12/03 00:24:48;;;;;;;17.57;5.60;;;3.10;99.90;;;;;;4134756;28;20209;-89
2021/12/03 00:26:49;;;;;;;24.53;5.40;;;3.10;99.90;;;;;;4118885;28;20217;-91
2021/12/03 00:28:50;;;;;;;18.07;5.23;;;3.20;99.90;;;;;;4134723;28;20182;-92
2021/12/03 00:30:50;;;;;;;23.33;5.43;;;3.10;99.90;;;;;;4118720;28;20317;-91
2021/12/03 00:32:51;;;;;;;22.30;5.53;;;3.20;99.90;;;;;;4134731;28;20639;-90
2021/12/03 00:34:52;;;;;;;20.37;5.17;;;3.20;99.90;;;;;;4118640;28;20213;-90
2021/12/03 00:36:55;;;;;;;21.37;5.37;;;3.10;99.90;;;;;;4134506;28;20680;-91
2021/12/03 00:38:59;;;;;;;16.10;5.40;;;3.10;99.90;;;;;;4134457;28;20201;-89
2021/12/03 00:41:00;;;;;;;22.83;6.47;;;3.10;99.90;;;;;;4118529;28;20240;-91
2021/12/03 00:43:03;;;;;;;16.27;6.20;;;3.10;99.90;;;;;;4150639;28;20175;-86
2021/12/03 00:45:05;;;;;;;23.10;6.37;;;3.00;99.90;;;;;;4150522;28;20207;-92
2021/12/03 00:47:05;;;;;;;15.07;5.90;;;3.00;99.90;;;;;;4150627;28;20173;-89
2021/12/03 00:49:06;;;;;;;16.73;5.93;;;3.00;99.90;;;;;;4134323;28;20539;-87
2021/12/03 00:51:09;;;;;;;25.90;5.90;;;2.80;99.90;;;;;;4118010;28;20222;-87
2021/12/03 00:53:09;;;;;;;23.27;5.80;;;2.90;99.90;;;;;;4150551;28;20177;-87
2021/12/03 00:55:11;;;;;;;18.47;5.93;;;2.90;99.90;;;;;;4134154;28;20197;-87
2021/12/03 00:57:12;;;;;;;16.93;6.40;;;2.90;99.90;;;;;;4117803;28;20197;-86
2021/12/03 00:59:14;;;;;;;24.80;7.13;;;2.80;99.90;;;;;;4134284;28;20201;-87
2021/12/03 01:01:15;;;;;;;33.37;6.43;;;2.90;99.90;;;;;;4118013;28;20177;-90
2021/12/03 01:03:16;;;;;;;20.60;6.50;;;3.00;99.90;;;;;;4150405;28;20180;-87
2021/12/03 01:05:17;;;;;;;19.03;6.50;;;3.00;99.90;;;;;;4134080;28;20227;-86
2021/12/03 01:07:18;;;;;;;27.07;6.80;;;3.00;99.90;;;;;;4118016;28;20245;-87
2021/12/03 01:09:21;;;;;;;33.13;7.50;;;2.80;99.90;;;;;;4133970;28;20605;-87
2021/12/03 01:11:21;;;;;;;29.20;6.87;;;2.90;99.90;;;;;;4118069;28;20170;-90
2021/12/03 01:13:22;;;;;;;20.67;6.90;;;2.90;99.90;;;;;;4133847;28;20185;-87
2021/12/03 01:15:32;;;;;;;18.30;6.50;;;3.00;99.90;;;;;;4134076;28;20259;-87
2021/12/03 01:17:33;;;;;;;24.53;6.60;;;3.00;99.90;;;;;;4150345;28;20173;-87
2021/12/03 01:19:34;;;;;;;23.57;7.07;;;2.90;99.90;;;;;;4133936;28;20233;-87
2021/12/03 01:21:35;;;;;;;23.93;6.10;;;2.90;99.90;;;;;;4133860;28;20220;-87
2021/12/03 01:23:35;;;;;;;30.97;6.90;;;2.90;99.90;;;;;;4133677;28;20289;-90
2021/12/03 01:25:37;;;;;;;33.83;6.77;;;3.00;99.90;;;;;;4133730;28;20193;-91
2021/12/03 01:27:38;;;;;;;22.63;6.17;;;3.00;99.90;;;;;;4117886;28;20174;-86
2021/12/03 01:29:39;;;;;;;23.13;6.30;;;3.00;99.90;;;;;;4133787;28;20265;-87
2021/12/03 01:31:40;;;;;;;19.53;6.27;;;2.90;99.90;;;;;;4117771;28;20233;-87
2021/12/03 01:33:43;;;;;;;25.30;6.10;;;2.80;99.90;;;;;;4149863;28;20169;-87
2021/12/03 01:35:43;;;;;;;19.97;5.97;;;2.80;99.90;;;;;;4149669;28;20197;-88
2021/12/03 01:37:44;;;;;;;24.00;6.10;;;2.70;99.90;;;;;;4133986;28;20289;-90
2021/12/03 01:39:45;;;;;;;19.93;5.50;;;2.70;99.90;;;;;;4118124;28;20210;-87
2021/12/03 01:41:46;;;;;;;19.73;5.77;;;2.80;99.90;;;;;;4133692;28;20178;-90
2021/12/03 01:43:47;;;;;;;23.80;5.60;;;2.80;99.90;;;;;;4117668;28;20170;-86
2021/12/03 01:45:50;;;;;;;31.90;5.33;;;2.80;99.90;;;;;;4133592;28;20200;-87
2021/12/03 01:47:52;;;;;;;26.67;5.90;;;2.80;99.90;;;;;;4117572;28;20189;-86
2021/12/03 01:49:52;;;;;;;26.97;6.53;;;2.80;99.90;;;;;;4133536;28;20174;-86
2021/12/03 01:51:53;;;;;;;22.27;5.13;;;2.80;99.90;;;;;;4117416;28;20237;-87
2021/12/03 01:53:54;;;;;;;24.70;5.70;;;2.80;99.90;;;;;;4133494;28;21229;-90
2021/12/03 01:55:58;;;;;;;24.90;5.43;;;2.90;99.90;;;;;;4117164;28;20527;-87
2021/12/03 01:57:59;;;;;;;22.50;5.63;;;2.90;99.90;;;;;;4149277;28;20219;-86
2021/12/03 02:00:01;;;;;;;20.90;5.70;;;2.90;99.90;;;;;;4134332;28;20255;-87
2021/12/03 02:02:02;;;;;;;26.70;6.20;;;2.90;99.90;;;;;;4133187;28;20173;-90
2021/12/03 02:04:04;;;;;;;27.17;5.80;;;2.90;99.90;;;;;;4132850;28;20534;-90
2021/12/03 02:06:07;;;;;;;35.03;6.03;;;3.00;99.90;;;;;;4149479;28;20196;-87
2021/12/03 02:08:08;;;;;;;25.80;5.50;;;3.00;99.90;;;;;;4149293;28;20695;-87
2021/12/03 02:10:10;;;;;;;22.37;5.10;;;3.00;99.90;;;;;;4132238;28;20555;-87
2021/12/03 02:12:11;;;;;;;35.57;5.63;;;3.00;99.90;;;;;;4132879;28;20319;-91
2021/12/03 02:14:11;;;;;;;29.73;5.63;;;2.90;99.90;;;;;;4116947;28;20182;-90
2021/12/03 02:16:13;;;;;;;23.73;5.13;;;3.00;99.90;;;;;;4132723;28;20178;-92
2021/12/03 02:18:16;;;;;;;37.20;5.10;;;2.90;99.90;;;;;;4132832;28;20174;-86
2021/12/03 02:20:18;;;;;;;21.23;4.60;;;2.90;99.90;;;;;;4132831;28;20181;-87
2021/12/03 02:22:18;;;;;;;26.87;4.80;;;2.80;99.90;;;;;;4132724;28;20789;-90
2021/12/03 02:24:21;;;;;;;28.50;4.83;;;2.80;99.90;;;;;;4133649;28;20204;-86
2021/12/03 02:26:23;;;;;;;22.93;5.23;;;2.70;99.90;;;;;;4148866;28;20180;-87
2021/12/03 02:28:26;;;;;;;29.87;5.33;;;2.70;99.90;;;;;;4132926;28;20184;-87
2021/12/03 02:30:27;;;;;;;15.07;4.07;;;2.80;99.90;;;;;;4149138;28;20212;-86
2021/12/03 02:32:27;;;;;;;30.47;4.40;;;2.60;99.90;;;;;;4132755;28;20743;-87
2021/12/03 02:34:28;;;;;;;31.43;4.47;;;2.60;99.90;;;;;;4132602;28;20185;-87
2021/12/03 02:36:29;;;;;;;32.40;5.40;;;2.70;99.90;;;;;;4116733;28;20170;-86
2021/12/03 02:38:31;;;;;;;21.73;4.57;;;2.60;99.90;;;;;;4132558;28;20265;-87
2021/12/03 02:40:31;;;;;;;23.10;4.20;;;2.70;99.90;;;;;;4116524;28;20174;-87
2021/12/03 02:42:32;;;;;;;21.20;4.97;;;2.70;99.90;;;;;;4132720;28;20180;-86
2021/12/03 02:44:33;;;;;;;21.23;4.37;;;2.60;99.90;;;;;;4116522;28;20190;-87
2021/12/03 02:46:34;;;;;;;29.67;4.60;;;2.70;99.90;;;;;;4132540;28;20626;-87
2021/12/03 02:48:37;;;;;;;30.20;5.03;;;2.70;99.90;;;;;;4132545;28;20243;-87
2021/12/03 02:50:37;;;;;;;28.37;4.13;;;2.60;99.90;;;;;;4132386;28;20219;-87
2021/12/03 02:52:38;;;;;;;22.07;4.87;;;2.50;99.90;;;;;;4116642;28;20217;-86
2021/12/03 02:54:39;;;;;;;36.67;5.37;;;2.50;99.90;;;;;;4132355;28;20694;-86
2021/12/03 02:56:40;;;;;;;26.10;5.03;;;2.50;99.90;;;;;;4116388;28;20207;-92
2021/12/03 02:58:40;;;;;;;29.77;4.53;;;2.60;99.90;;;;;;4132391;28;20306;-86
2021/12/03 03:00:42;;;;;;;30.27;4.63;;;2.60;99.90;;;;;;4116364;28;20262;-87
2021/12/03 03:02:44;;;;;;;16.33;4.43;;;2.60;99.90;;;;;;4148672;28;20630;-87
2021/12/03 03:04:45;;;;;;;23.90;4.87;;;2.40;99.90;;;;;;4148599;28;20199;-87
2021/12/03 03:06:46;;;;;;;29.90;5.00;;;2.50;99.90;;;;;;4132473;28;20615;-87
2021/12/03 03:08:48;;;;;;;25.80;4.80;;;2.50;99.90;;;;;;4116492;28;20181;-86
2021/12/03 03:10:49;;;;;;;19.33;4.80;;;2.50;99.90;;;;;;4132660;28;20257;-87
2021/12/03 03:12:51;;;;;;;20.43;5.03;;;2.50;99.90;;;;;;4116235;28;20177;-87
2021/12/03 03:14:55;;;;;;;21.20;4.87;;;2.60;99.90;;;;;;4148661;28;20232;-85
2021/12/03 03:16:56;;;;;;;24.57;5.37;;;2.60;99.90;;;;;;4132461;28;20264;-86
2021/12/03 03:18:57;;;;;;;22.67;4.90;;;2.60;99.90;;;;;;4132509;28;20204;-87
2021/12/03 03:20:59;;;;;;;25.93;5.70;;;2.60;99.90;;;;;;4132074;28;20185;-87
2021/12/03 03:23:00;;;;;;;23.37;6.20;;;2.60;99.90;;;;;;4148544;28;20180;-91
2021/12/03 03:25:02;;;;;;;20.43;5.90;;;2.50;99.90;;;;;;4132082;28;20601;-86
2021/12/03 03:27:03;;;;;;;26.33;5.77;;;2.60;99.90;;;;;;4148558;28;20169;-86
2021/12/03 03:29:06;;;;;;;22.47;6.43;;;2.60;99.90;;;;;;4148567;28;20184;-86
2021/12/03 03:31:07;;;;;;;30.33;6.40;;;2.50;99.90;;;;;;4148634;28;20183;-86
2021/12/03 03:33:09;;;;;;;32.20;6.30;;;2.60;99.90;;;;;;4148312;28;20180;-86
2021/12/03 03:35:10;;;;;;;29.83;5.80;;;2.60;99.90;;;;;;4132243;28;20201;-87
2021/12/03 03:37:10;;;;;;;33.83;6.57;;;2.60;99.90;;;;;;4132032;28;20721;-86
2021/12/03 03:39:13;;;;;;;27.13;5.70;;;2.60;99.90;;;;;;4132155;28;20209;-86
2021/12/03 03:41:14;;;;;;;27.83;5.67;;;2.50;99.90;;;;;;4116061;28;20170;-87
2021/12/03 03:43:16;;;;;;;34.73;5.40;;;2.50;99.90;;;;;;4131980;28;20272;-86
2021/12/03 03:45:24;;;;;;;28.40;5.13;;;2.50;99.90;;;;;;4115977;28;20202;-86
2021/12/03 03:47:25;;;;;;;30.13;5.67;;;2.40;99.90;;;;;;4131926;28;20303;-86
2021/12/03 03:49:28;;;;;;;26.40;5.40;;;2.40;99.90;;;;;;4115968;28;20186;-86
2021/12/03 03:51:29;;;;;;;28.17;4.97;;;2.40;99.90;;;;;;4148285;28;20188;-87
2021/12/03 03:53:30;;;;;;;28.57;4.87;;;2.50;99.90;;;;;;4116035;28;20181;-87
2021/12/03 03:55:32;;;;;;;20.17;4.87;;;2.50;99.90;;;;;;4131811;28;20204;-87
2021/12/03 03:57:33;;;;;;;27.53;5.03;;;2.50;99.90;;;;;;4115969;28;20174;-87
2021/12/03 03:59:34;;;;;;;26.50;6.00;;;2.50;99.90;;;;;;4115851;28;20221;-86
2021/12/03 04:01:34;;;;;;;19.83;5.50;;;2.60;99.90;;;;;;4132086;28;20237;-86
2021/12/03 04:03:35;;;;;;;27.70;4.87;;;2.50;99.90;;;;;;4132018;28;20182;-86
2021/12/03 04:05:36;;;;;;;26.20;5.67;;;2.40;99.90;;;;;;4131922;28;20196;-88
2021/12/03 04:07:37;;;;;;;22.93;5.57;;;2.40;99.90;;;;;;4148163;28;20279;-87
2021/12/03 04:09:38;;;;;;;23.67;4.83;;;2.40;99.90;;;;;;4148013;28;20173;-86
2021/12/03 04:11:39;;;;;;;23.03;4.83;;;2.40;99.90;;;;;;4132009;28;20268;-88
2021/12/03 04:13:40;;;;;;;27.60;5.63;;;2.40;99.90;;;;;;4131609;28;20178;-86
2021/12/03 04:15:42;;;;;;;23.70;5.60;;;2.40;99.90;;;;;;4131944;28;20698;-87
2021/12/03 04:17:43;;;;;;;29.70;5.40;;;2.50;99.90;;;;;;4131773;28;20184;-90
2021/12/03 04:19:44;;;;;;;31.70;5.70;;;2.50;99.90;;;;;;4115782;28;20647;-92
2021/12/03 04:21:45;;;;;;;34.33;6.33;;;2.50;99.90;;;;;;4131706;28;20264;-92
2021/12/03 04:23:46;;;;;;;29.73;5.77;;;2.40;99.90;;;;;;4131692;28;20209;-90
2021/12/03 04:25:48;;;;;;;31.30;6.50;;;2.40;99.90;;;;;;4115616;28;20198;-87
2021/12/03 04:27:50;;;;;;;38.33;6.63;;;2.40;99.90;;;;;;4148039;28;20208;-87
2021/12/03 04:29:51;;;;;;;28.00;5.60;;;2.50;99.90;;;;;;4115544;28;20543;-86
2021/12/03 04:31:51;;;;;;;35.23;5.73;;;2.50;99.90;;;;;;4131621;28;20170;-86
2021/12/03 04:33:52;;;;;;;28.53;5.50;;;2.60;99.90;;;;;;4118377;28;20639;-86
2021/12/03 04:35:53;;;;;;;35.83;6.20;;;2.50;99.90;;;;;;4134582;28;20169;-86
2021/12/03 04:37:57;;;;;;;29.50;5.33;;;2.60;99.90;;;;;;4118631;28;20205;-86
2021/12/03 04:39:58;;;;;;;29.87;6.40;;;2.50;99.90;;;;;;4150537;28;20212;-86
2021/12/03 04:41:58;;;;;;;22.00;5.30;;;2.50;99.90;;;;;;4118684;28;20212;-86
2021/12/03 04:43:59;;;;;;;30.13;6.17;;;2.60;99.90;;;;;;4150631;28;20181;-92
2021/12/03 04:46:00;;;;;;;36.43;5.57;;;2.60;99.90;;;;;;4135481;28;20169;-87
2021/12/03 04:48:02;;;;;;;24.97;5.73;;;2.50;99.90;;;;;;4150835;28;20277;-87
2021/12/03 04:50:06;;;;;;;28.30;5.77;;;2.50;99.90;;;;;;4134408;28;20586;-86
2021/12/03 04:52:07;;;;;;;32.40;5.87;;;2.40;99.90;;;;;;4150397;28;20217;-86
2021/12/03 04:54:08;;;;;;;29.13;5.90;;;2.40;99.90;;;;;;4118013;28;20178;-85
2021/12/03 04:56:08;;;;;;;29.53;5.33;;;2.40;99.90;;;;;;4134266;28;20606;-86
2021/12/03 04:58:09;;;;;;;24.37;5.23;;;2.30;99.90;;;;;;4118312;28;20181;-86
2021/12/03 05:00:14;;;;;;;31.27;5.47;;;2.20;99.90;;;;;;4134148;28;20205;-87
2021/12/03 05:02:18;;;;;;;31.77;5.87;;;2.10;99.90;;;;;;4118100;28;20162;-86
2021/12/03 05:04:19;;;;;;;20.70;4.70;;;2.10;99.90;;;;;;4150197;28;20672;-86
2021/12/03 05:06:29;;;;;;;28.87;6.07;;;2.00;99.90;;;;;;4150304;28;20182;-88
2021/12/03 05:08:31;;;;;;;33.03;5.60;;;2.00;99.90;;;;;;4118019;28;20182;-87
2021/12/03 05:10:36;;;;;;;29.57;5.97;;;1.90;99.90;;;;;;4150179;28;20173;-87
2021/12/03 05:12:37;;;;;;;18.00;4.37;;;2.00;99.90;;;;;;4150371;28;20256;-86
2021/12/03 05:14:38;;;;;;;35.00;5.03;;;2.00;99.90;;;;;;4117808;28;20229;-86
2021/12/03 05:16:38;;;;;;;23.97;4.57;;;2.00;99.90;;;;;;4133976;28;20181;-86
2021/12/03 05:18:44;;;;;;;23.67;4.83;;;2.10;99.90;;;;;;4117860;28;20202;-88
2021/12/03 05:20:46;;;;;;;22.70;4.90;;;2.10;99.90;;;;;;4133851;28;20680;-86
2021/12/03 05:22:47;;;;;;;27.17;4.60;;;2.00;99.90;;;;;;4133659;28;20529;-86
2021/12/03 05:24:48;;;;;;;18.50;4.50;;;2.00;99.90;;;;;;4133709;28;20200;-89
2021/12/03 05:26:48;;;;;;;15.33;4.00;;;2.00;99.90;;;;;;4133810;28;20272;-87
2021/12/03 05:28:50;;;;;;;18.93;4.37;;;2.00;99.90;;;;;;4133942;28;20215;-86
2021/12/03 05:30:51;;;;;;;13.47;3.97;;;2.00;99.90;;;;;;4117472;28;20179;-86
2021/12/03 05:32:52;;;;;;;23.17;4.17;;;2.00;99.90;;;;;;4133689;28;20224;-87
2021/12/03 05:34:53;;;;;;;17.20;4.50;;;2.00;99.90;;;;;;4133491;28;20194;-86
2021/12/03 05:36:53;;;;;;;20.97;3.93;;;1.90;99.90;;;;;;4133625;28;20197;-90
2021/12/03 05:38:55;;;;;;;16.37;4.13;;;1.80;99.90;;;;;;4133353;28;20238;-86
2021/12/03 05:40:56;;;;;;;19.93;3.93;;;1.90;99.90;;;;;;4149786;28;20275;-91
2021/12/03 05:42:57;;;;;;;20.97;4.37;;;1.80;99.90;;;;;;4133476;28;20566;-86
2021/12/03 05:44:58;;;;;;;16.40;3.80;;;1.80;99.90;;;;;;4133464;28;20194;-87
2021/12/03 05:46:59;;;;;;;21.23;4.00;;;1.80;99.90;;;;;;4133725;28;20654;-86
2021/12/03 05:49:00;;;;;;;17.83;4.70;;;1.80;99.90;;;;;;4133339;28;20228;-86
2021/12/03 05:51:01;;;;;;;23.87;3.63;;;1.80;99.90;;;;;;4117139;28;20186;-86
2021/12/03 05:53:02;;;;;;;23.43;4.57;;;1.80;99.90;;;;;;4149822;28;20183;-90
2021/12/03 05:55:04;;;;;;;20.07;3.87;;;1.90;99.90;;;;;;4117317;28;20198;-86
2021/12/03 05:57:05;;;;;;;22.50;4.23;;;2.00;99.90;;;;;;4149500;28;20168;-90
2021/12/03 05:59:06;;;;;;;24.23;4.70;;;2.10;99.90;;;;;;4133316;28;20201;-90
2021/12/03 06:01:06;;;;;;;16.77;3.73;;;2.10;99.90;;;;;;4117013;28;20186;-90
2021/12/03 06:03:07;;;;;;;24.57;3.83;;;2.10;99.90;;;;;;4133265;28;20188;-91
2021/12/03 06:05:08;;;;;;;18.53;3.90;;;2.20;99.90;;;;;;4117263;28;20253;-89
2021/12/03 06:07:09;;;;;;;19.60;3.73;;;2.30;99.90;;;;;;4149384;28;20168;-87
2021/12/03 06:09:10;;;;;;;14.50;3.70;;;2.20;99.90;;;;;;4117244;28;20628;-86
2021/12/03 06:11:10;;;;;;;18.00;3.73;;;2.30;99.90;;;;;;4133007;28;20225;-90
2021/12/03 06:13:11;;;;;;;22.70;4.07;;;2.20;99.90;;;;;;4149295;28;20625;-88
2021/12/03 06:15:13;;;;;;;15.57;3.40;;;2.20;99.90;;;;;;4117202;28;20194;-90
2021/12/03 06:17:15;;;;;;;12.43;3.70;;;2.20;99.90;;;;;;4149557;28;20177;-88
2021/12/03 06:19:16;;;;;;;18.30;3.93;;;2.10;99.90;;;;;;4132927;28;20225;-89
2021/12/03 06:21:17;;;;;;;19.43;3.97;;;2.30;99.90;;;;;;4116903;28;20249;-89
2021/12/03 06:23:18;;;;;;;16.57;3.50;;;2.30;99.90;;;;;;4133003;28;20709;-87
2021/12/03 06:25:19;;;;;;;22.57;3.87;;;2.30;99.90;;;;;;4132630;28;20216;-87
2021/12/03 06:27:20;;;;;;;16.37;3.43;;;2.40;99.90;;;;;;4132969;28;20209;-91
2021/12/03 06:29:21;;;;;;;23.27;3.93;;;2.40;99.90;;;;;;4116840;28;20190;-87
2021/12/03 06:31:22;;;;;;;18.00;3.73;;;2.40;99.90;;;;;;4149159;28;20280;-88
2021/12/03 06:33:22;;;;;;;20.83;3.10;;;2.40;99.90;;;;;;4149231;28;20173;-86
2021/12/03 06:35:23;;;;;;;17.77;3.83;;;2.40;99.90;;;;;;4132857;28;20668;-86
2021/12/03 06:37:24;;;;;;;14.90;3.57;;;2.40;99.90;;;;;;4116577;28;20229;-86
2021/12/03 06:39:25;;;;;;;18.63;3.33;;;2.50;99.90;;;;;;4116474;28;20230;-91
2021/12/03 06:41:25;;;;;;;22.13;3.60;;;2.50;99.90;;;;;;4132635;28;20173;-86
2021/12/03 06:43:26;;;;;;;16.13;3.83;;;2.50;99.90;;;;;;4116354;28;20264;-87
2021/12/03 06:45:27;;;;;;;12.50;3.17;;;2.50;99.90;;;;;;4132703;28;20205;-87
2021/12/03 06:47:28;;;;;;;15.93;3.13;;;2.50;99.90;;;;;;4116657;28;20579;-89
2021/12/03 06:49:30;;;;;;;17.10;3.17;;;2.40;99.90;;;;;;4132537;28;20178;-86
2021/12/03 06:51:31;;;;;;;19.70;3.47;;;2.40;99.90;;;;;;4132495;28;20177;-89
2021/12/03 06:53:44;;;;;;;19.40;3.30;;;2.40;99.90;;;;;;4132531;28;20191;-86
2021/12/03 06:55:51;;;;;;;23.67;3.70;;;2.50;99.90;;;;;;4116152;28;20196;-89
2021/12/03 06:57:52;;;;;;;29.00;3.83;;;2.60;99.90;;;;;;4116763;28;20207;-87
2021/12/03 06:59:53;;;;;;;12.27;2.60;;;2.50;99.90;;;;;;4148551;28;20239;-87
2021/12/03 07:01:54;;;;;;;15.93;4.00;;;2.50;99.90;;;;;;4148724;28;20181;-87
2021/12/03 07:03:55;;;;;;;24.13;3.87;;;2.60;99.90;;;;;;4148503;28;20234;-90
2021/12/03 07:05:55;;;;;;;18.30;3.10;;;2.60;99.90;;;;;;4132375;28;20201;-87
2021/12/03 07:07:56;;;;;;;16.30;2.93;;;2.60;99.90;;;;;;4132727;28;20174;-86
2021/12/03 07:09:57;;;;;;;14.93;3.67;;;2.60;99.90;;;;;;4132543;28;20169;-87
2021/12/03 07:11:58;;;;;;;16.47;2.87;;;2.60;99.90;;;;;;4148521;28;20176;-87
2021/12/03 07:13:59;;;;;;;14.90;2.83;;;2.60;99.90;;;;;;4132311;28;20562;-87
2021/12/03 07:16:00;;;;;;;14.70;2.67;;;2.60;99.90;;;;;;4132254;28;20677;-91
2021/12/03 07:18:02;;;;;;;17.50;3.63;;;2.60;99.90;;;;;;4116234;28;20266;-87
2021/12/03 07:20:03;;;;;;;20.13;3.20;;;2.70;99.90;;;;;;4132307;28;20757;-90
2021/12/03 07:22:04;;;;;;;18.93;3.30;;;2.60;99.90;;;;;;4116181;28;20194;-87
2021/12/03 07:24:05;;;;;;;19.00;3.37;;;2.60;99.90;;;;;;4116359;28;20294;-87
2021/12/03 07:26:06;;;;;;;21.47;3.73;;;2.60;99.90;;;;;;4132267;28;20212;-85
2021/12/03 07:28:07;;;;;;;15.00;2.43;;;2.60;99.90;;;;;;4133377;28;20209;-89
2021/12/03 07:30:10;;;;;;;18.50;2.57;;;2.80;99.90;;;;;;4148405;28;20179;-90
2021/12/03 07:32:11;;;;;;;14.50;2.80;;;2.90;99.90;;;;;;4132175;28;20276;-90
2021/12/03 07:34:12;;;;;;;15.97;2.97;;;2.80;99.90;;;;;;4132149;28;20248;-90
2021/12/03 07:36:13;;;;;;;21.80;3.60;;;2.80;99.90;;;;;;4116149;28;20174;-87
2021/12/03 07:38:17;;;;;;;15.50;2.90;;;2.80;99.90;;;;;;4132398;28;20257;-90
2021/12/03 07:40:18;;;;;;;24.03;3.03;;;2.80;99.90;;;;;;4148490;28;20295;-89
2021/12/03 07:42:19;;;;;;;18.03;2.97;;;2.70;99.90;;;;;;4148924;28;20181;-86
2021/12/03 07:44:20;;;;;;;18.00;3.40;;;2.80;99.90;;;;;;4132380;28;20193;-86
2021/12/03 07:46:21;;;;;;;22.63;3.47;;;2.90;99.90;;;;;;4132274;28;20174;-87
2021/12/03 07:48:23;;;;;;;15.43;2.90;;;2.80;99.90;;;;;;4116185;28;20237;-87
2021/12/03 07:50:23;;;;;;;12.67;2.43;;;2.90;99.90;;;;;;4132275;28;20275;-87
2021/12/03 07:52:25;;;;;;;14.47;3.60;;;2.90;99.90;;;;;;4132182;28;20177;-87
2021/12/03 07:54:26;;;;;;;18.93;3.27;;;2.90;99.90;;;;;;4132153;28;20198;-87
2021/12/03 07:56:26;;;;;;;17.20;3.50;;;2.90;99.90;;;;;;4132092;28;20256;-86
2021/12/03 07:58:27;;;;;;;14.40;3.00;;;2.80;99.90;;;;;;4115822;28;20170;-86
2021/12/03 08:00:28;;;;;;;15.43;3.30;;;2.90;99.90;;;;;;4131834;28;20181;-90
2021/12/03 08:02:28;;;;;;;20.70;3.60;;;2.90;99.90;;;;;;4131902;28;20704;-87
2021/12/03 08:04:29;;;;;;;15.90;3.43;;;2.90;99.90;;;;;;4132049;28;20280;-87
2021/12/03 08:06:31;;;;;;;15.60;3.37;;;2.80;99.90;;;;;;4132130;28;20178;-87
2021/12/03 08:08:32;;;;;;;20.27;4.27;;;3.00;99.90;;;;;;4135461;28;20280;-90
2021/12/03 08:10:36;;;;;;;19.97;3.83;;;3.00;99.90;;;;;;4151432;28;20180;-86
2021/12/03 08:12:42;;;;;;;16.40;3.83;;;2.90;99.90;;;;;;4134987;28;20281;-90
2021/12/03 08:14:43;;;;;;;20.53;4.57;;;3.00;99.90;;;;;;4134936;28;20244;-86
2021/12/03 08:16:44;;;;;;;16.57;4.23;;;3.10;99.90;;;;;;4134963;28;20177;-90
2021/12/03 08:18:45;;;;;;;13.77;3.87;;;3.00;99.90;;;;;;4151191;28;20255;-90
2021/12/03 08:20:46;;;;;;;14.77;4.10;;;3.00;99.90;;;;;;4151094;28;20177;-90
2021/12/03 08:22:47;;;;;;;11.93;3.00;;;3.00;99.90;;;;;;4134899;28;20273;-87
2021/12/03 08:24:47;;;;;;;17.30;5.20;;;3.00;99.90;;;;;;4134565;28;20225;-89
2021/12/03 08:26:48;;;;;;;17.20;4.53;;;3.00;99.90;;;;;;4134946;28;20692;-91
2021/12/03 08:28:49;;;;;;;23.60;4.20;;;3.00;99.90;;;;;;4118542;28;20233;-90
2021/12/03 08:30:50;;;;;;;17.60;4.73;;;3.00;99.90;;;;;;4150877;28;20177;-87
2021/12/03 08:32:50;;;;;;;18.57;5.00;;;3.20;99.90;;;;;;4134777;28;20174;-90
2021/12/03 08:34:52;;;;;;;22.17;4.57;;;3.30;99.90;;;;;;4118475;28;20245;-87
2021/12/03 08:36:53;;;;;;;24.57;4.53;;;3.30;99.90;;;;;;4134668;28;20268;-88
2021/12/03 08:38:53;;;;;;;17.73;4.43;;;3.20;99.90;;;;;;4118390;28;20210;-90
2021/12/03 08:40:54;;;;;;;15.37;4.37;;;3.40;99.90;;;;;;4150808;28;20665;-89
2021/12/03 08:42:55;;;;;;;20.87;4.53;;;3.60;99.90;;;;;;4118289;28;20170;-92
2021/12/03 08:44:58;;;;;;;16.03;4.87;;;3.60;99.90;;;;;;4134528;28;20284;-90
2021/12/03 08:47:03;;;;;;;12.90;4.23;;;3.60;99.90;;;;;;4134531;28;20657;-91
2021/12/03 08:49:10;;;;;;;19.37;4.40;;;3.50;99.90;;;;;;4150707;28;20172;-91
2021/12/03 08:55:39;;;;;;;16.13;4.23;;;3.40;99.90;;;;;;4150362;28;20197;-88
2021/12/03 08:57:40;;;;;;;16.10;5.00;;;3.50;99.90;;;;;;4150717;28;20165;-90
2021/12/03 08:59:40;;;;;;;17.87;4.83;;;3.40;99.90;;;;;;4134242;28;20220;-90
2021/12/03 09:01:43;;;;;;;20.20;4.70;;;3.50;99.90;;;;;;4150645;28;20172;-91
2021/12/03 09:03:44;;;;;;;14.10;4.43;;;3.60;99.90;;;;;;4134393;28;20182;-90
2021/12/03 09:05:46;;;;;;;12.17;3.90;;;3.70;99.90;;;;;;4117891;28;20544;-90
2021/12/03 09:07:47;;;;;;;15.90;4.37;;;3.80;99.90;;;;;;4118107;28;20179;-87
2021/12/03 09:09:48;;;;;;;17.27;4.10;;;3.80;99.90;;;;;;4118193;28;20247;-90
2021/12/03 09:11:49;;;;;;;15.37;3.87;;;3.70;99.90;;;;;;4150315;28;20272;-88
2021/12/03 09:13:51;;;;;;;17.13;4.33;;;3.70;99.90;;;;;;4134229;28;20264;-90
2021/12/03 09:16:05;;;;;;;17.93;3.97;;;3.70;99.90;;;;;;4135354;28;20248;-91
2021/12/03 09:24:38;;;;;;;14.60;3.70;;;3.90;99.90;;;;;;4150170;28;20193;-89
2021/12/03 09:26:42;;;;;;;6.40;2.00;;;4.00;99.90;;;;;;4150387;28;20600;-89
2021/12/03 09:28:57;;;;;;;12.30;2.93;;;4.10;99.90;;;;;;4133843;28;20546;-87
2021/12/03 09:30:58;;;;;;;7.13;2.33;;;4.00;99.90;;;;;;4133871;28;20173;-90
2021/12/03 09:32:58;;;;;;;17.00;3.80;;;4.10;99.90;;;;;;4117750;28;20224;-91
2021/12/03 09:35:02;;;;;;;15.80;3.17;;;4.00;99.90;;;;;;4133618;28;20204;-87
2021/12/03 09:37:03;;;;;;;8.20;2.73;;;4.00;99.90;;;;;;4149974;28;20235;-89
2021/12/03 09:39:04;;;;;;;14.50;3.80;;;4.10;99.90;;;;;;4117267;28;20206;-90
2021/12/03 09:41:11;;;;;;;8.60;2.77;;;4.20;99.90;;;;;;4149889;28;20177;-90
2021/12/03 09:43:13;;;;;;;11.10;4.20;;;4.10;99.90;;;;;;4149930;28;20165;-90
2021/12/03 09:45:14;;;;;;;11.67;3.13;;;4.10;99.90;;;;;;4149782;28;20240;-90
2021/12/03 09:47:16;;;;;;;17.97;3.63;;;4.10;99.90;;;;;;4133579;28;20178;-90
2021/12/03 09:51:26;;;;;;;10.90;3.13;;;4.20;99.90;;;;;;4134497;28;20361;-87
2021/12/03 09:53:51;;;;;;;11.03;2.97;;;4.20;99.90;;;;;;4149604;28;20199;-88
2021/12/03 09:55:47;;;;;;;18.07;3.47;;;4.40;99.90;;;;;;4149033;28;20236;-87
2021/12/03 09:58:29;;;;;;;13.80;3.60;;;4.40;99.90;;;;;;4133472;28;20701;-87
2021/12/03 10:13:54;;;;;;;11.17;3.27;;;4.40;99.90;;;;;;4149381;28;20227;-90
2021/12/03 10:16:22;;;;;;;3.90;1.57;;;4.40;99.90;;;;;;4149196;28;20219;-86
2021/12/03 10:18:32;;;;;;;13.17;2.13;;;4.30;99.90;;;;;;4149452;28;20280;-91
2021/12/03 10:20:47;;;;;;;4.27;1.87;;;4.40;99.90;;;;;;4149402;28;20192;-88
2021/12/03 10:28:01;;;;;;;12.40;3.03;;;4.40;99.90;;;;;;4134089;28;20206;-91
2021/12/03 10:29:50;;;;;;;11.30;3.03;;;4.40;99.90;;;;;;4132402;28;20190;-92
2021/12/03 10:36:45;;;;;;;10.57;2.73;;;4.60;99.90;;;;;;4132590;28;20555;-88
2021/12/03 10:39:10;;;;;;;6.63;2.23;;;4.60;99.90;;;;;;4132764;28;20562;-90
2021/12/03 10:46:02;;;;;;;10.43;2.77;;;4.60;99.90;;;;;;4132619;28;20206;-89
2021/12/03 10:48:20;;;;;;;5.50;2.20;;;4.60;99.90;;;;;;4116883;28;20175;-90
2021/12/03 10:55:22;;;;;;;6.43;2.50;;;4.80;99.90;;;;;;4132857;28;20297;-88
2021/12/03 10:59:56;;;;;;;10.93;2.70;;;4.80;99.90;;;;;;4148792;28;20211;-91
2021/12/03 11:05:13;;;;;;;15.27;2.10;;;4.90;99.90;;;;;;4105186;28;20586;-90
2021/12/03 11:30:06;;;;;;;9.67;2.13;;;4.90;99.90;;;;;;4132341;28;20264;-91
2021/12/03 11:38:56;;;;;;;5.80;2.30;;;5.00;99.90;;;;;;4148377;28;20614;-89
2021/12/03 11:46:44;;;;;;;6.00;2.03;;;5.20;99.90;;;;;;4136576;28;20236;-89
2021/12/03 12:07:20;;;;;;;3.70;1.60;;;5.00;99.90;;;;;;4151409;28;20699;-92
2021/12/03 12:13:00;;;;;;;8.30;2.07;;;4.80;99.90;;;;;;4124610;28;20190;-91
2021/12/03 12:16:33;;;;;;;3.03;1.10;;;4.80;99.90;;;;;;4151135;28;20767;-92
2021/12/03 12:26:32;;;;;;;6.83;2.30;;;4.70;99.90;;;;;;4136254;28;20284;-87
2021/12/03 12:34:50;;;;;;;4.43;1.60;;;4.70;99.90;;;;;;4091839;28;20544;-92
2021/12/03 12:56:56;;;;;;;1.77;0.60;;;4.70;99.90;;;;;;4134233;28;20225;-89
2021/12/03 13:14:58;;;;;;;5.30;2.10;;;4.30;99.90;;;;;;4150250;28;20601;-89
2021/12/03 14:07:27;;;;;;;3.83;1.73;;;4.50;99.90;;;;;;4119792;28;20231;-91